sensor_id;sensor_type;location;lat;lon;timestamp;pressure;altitude;pressure_sealevel;temperature;humidity
10948;BME280;5526;42.070;24.752;2023-07-13T00:01:52;98984.25;;;26.92;57.96
10948;BME280;5526;42.070;24.752;2023-07-13T00:04:22;98984.78;;;27.01;57.63
10948;BME280;5526;42.070;24.752;2023-07-13T00:06:51;98996.69;;;26.96;58.33
10948;BME280;5526;42.070;24.752;2023-07-13T00:09:19;98997.28;;;26.86;58.19
10948;BME280;5526;42.070;24.752;2023-07-13T00:11:50;98998.78;;;26.84;59.21
10948;BME280;5526;42.070;24.752;2023-07-13T00:14:17;98997.50;;;26.78;59.49
10948;BME280;5526;42.070;24.752;2023-07-13T00:16:44;98994.81;;;26.78;58.82
10948;BME280;5526;42.070;24.752;2023-07-13T00:19:12;98995.97;;;26.77;60.02
10948;BME280;5526;42.070;24.752;2023-07-13T00:21:41;98990.88;;;26.72;59.88
10948;BME280;5526;42.070;24.752;2023-07-13T00:24:11;98984.19;;;26.66;60.70
10948;BME280;5526;42.070;24.752;2023-07-13T00:26:39;98989.88;;;26.61;60.80
10948;BME280;5526;42.070;24.752;2023-07-13T00:29:11;98980.47;;;26.55;61.74
10948;BME280;5526;42.070;24.752;2023-07-13T00:31:38;98981.22;;;26.52;61.65
10948;BME280;5526;42.070;24.752;2023-07-13T00:34:05;98974.97;;;26.48;61.22
10948;BME280;5526;42.070;24.752;2023-07-13T00:36:32;98982.22;;;26.44;61.79
10948;BME280;5526;42.070;24.752;2023-07-13T00:39:01;98987.19;;;26.42;61.26
10948;BME280;5526;42.070;24.752;2023-07-13T00:41:29;98982.59;;;26.42;61.32
10948;BME280;5526;42.070;24.752;2023-07-13T00:43:57;98977.84;;;26.36;63.10
10948;BME280;5526;42.070;24.752;2023-07-13T00:46:26;98980.41;;;26.29;63.61
10948;BME280;5526;42.070;24.752;2023-07-13T00:48:55;98976.13;;;26.28;64.21
10948;BME280;5526;42.070;24.752;2023-07-13T00:51:28;98967.75;;;26.14;64.03
10948;BME280;5526;42.070;24.752;2023-07-13T00:53:59;98974.50;;;26.04;63.89
10948;BME280;5526;42.070;24.752;2023-07-13T00:56:28;98970.47;;;26.14;63.51
10948;BME280;5526;42.070;24.752;2023-07-13T00:58:56;98964.56;;;26.08;63.70
10948;BME280;5526;42.070;24.752;2023-07-13T01:01:24;98974.16;;;26.06;63.52
10948;BME280;5526;42.070;24.752;2023-07-13T01:03:51;98971.66;;;25.97;64.02
10948;BME280;5526;42.070;24.752;2023-07-13T01:06:19;98970.47;;;25.95;64.64
10948;BME280;5526;42.070;24.752;2023-07-13T01:08:46;98963.38;;;25.90;65.08
10948;BME280;5526;42.070;24.752;2023-07-13T01:11:18;98967.56;;;25.88;65.19
10948;BME280;5526;42.070;24.752;2023-07-13T01:13:48;98961.84;;;25.89;64.78
10948;BME280;5526;42.070;24.752;2023-07-13T01:16:21;98952.19;;;25.88;65.37
10948;BME280;5526;42.070;24.752;2023-07-13T01:18:49;98946.22;;;25.79;65.09
10948;BME280;5526;42.070;24.752;2023-07-13T01:21:17;98947.84;;;25.84;66.30
10948;BME280;5526;42.070;24.752;2023-07-13T01:23:45;98948.84;;;25.76;68.08
10948;BME280;5526;42.070;24.752;2023-07-13T01:26:12;98947.56;;;25.70;67.65
10948;BME280;5526;42.070;24.752;2023-07-13T01:28:39;98945.56;;;25.67;67.17
10948;BME280;5526;42.070;24.752;2023-07-13T01:31:06;98952.09;;;25.66;66.96
10948;BME280;5526;42.070;24.752;2023-07-13T01:33:34;98953.94;;;25.62;67.20
10948;BME280;5526;42.070;24.752;2023-07-13T01:36:01;98947.81;;;25.65;66.13
10948;BME280;5526;42.070;24.752;2023-07-13T01:38:29;98954.50;;;25.71;65.47
10948;BME280;5526;42.070;24.752;2023-07-13T01:40:56;98947.31;;;25.59;65.20
10948;BME280;5526;42.070;24.752;2023-07-13T01:43:23;98959.75;;;25.64;65.29
10948;BME280;5526;42.070;24.752;2023-07-13T01:45:50;98954.66;;;25.59;64.69
10948;BME280;5526;42.070;24.752;2023-07-13T01:48:17;98957.25;;;25.55;64.39
10948;BME280;5526;42.070;24.752;2023-07-13T01:50:46;98961.72;;;25.48;64.01
10948;BME280;5526;42.070;24.752;2023-07-13T01:53:14;98969.00;;;25.47;63.91
10948;BME280;5526;42.070;24.752;2023-07-13T01:55:42;98967.16;;;25.51;64.14
10948;BME280;5526;42.070;24.752;2023-07-13T01:58:09;98962.34;;;25.41;64.88
10948;BME280;5526;42.070;24.752;2023-07-13T02:00:36;98966.88;;;25.37;65.90
10948;BME280;5526;42.070;24.752;2023-07-13T02:03:04;98968.00;;;25.36;67.49
10948;BME280;5526;42.070;24.752;2023-07-13T02:05:31;98971.06;;;25.35;66.24
10948;BME280;5526;42.070;24.752;2023-07-13T02:07:58;98976.00;;;25.33;65.62
10948;BME280;5526;42.070;24.752;2023-07-13T02:10:25;98979.56;;;25.37;65.04
10948;BME280;5526;42.070;24.752;2023-07-13T02:12:53;98984.94;;;25.37;64.91
10948;BME280;5526;42.070;24.752;2023-07-13T02:15:20;98985.22;;;25.32;66.24
10948;BME280;5526;42.070;24.752;2023-07-13T02:17:47;98986.22;;;25.27;67.04
10948;BME280;5526;42.070;24.752;2023-07-13T02:20:14;98993.22;;;25.28;67.11
10948;BME280;5526;42.070;24.752;2023-07-13T02:22:41;98995.03;;;25.24;66.64
10948;BME280;5526;42.070;24.752;2023-07-13T02:25:08;98989.53;;;25.21;66.89
10948;BME280;5526;42.070;24.752;2023-07-13T02:27:35;98990.34;;;25.21;66.62
10948;BME280;5526;42.070;24.752;2023-07-13T02:30:05;98992.22;;;25.21;66.53
10948;BME280;5526;42.070;24.752;2023-07-13T02:32:33;98991.72;;;25.15;67.48
10948;BME280;5526;42.070;24.752;2023-07-13T02:35:01;98989.28;;;25.10;66.80
10948;BME280;5526;42.070;24.752;2023-07-13T02:37:29;98993.19;;;25.13;66.67
10948;BME280;5526;42.070;24.752;2023-07-13T02:39:57;99001.28;;;25.13;66.16
10948;BME280;5526;42.070;24.752;2023-07-13T02:42:24;99011.38;;;25.16;65.99
10948;BME280;5526;42.070;24.752;2023-07-13T02:44:51;99008.94;;;25.11;65.63
10948;BME280;5526;42.070;24.752;2023-07-13T02:47:19;99011.25;;;25.12;65.88
10948;BME280;5526;42.070;24.752;2023-07-13T02:49:46;98996.91;;;25.08;65.11
10948;BME280;5526;42.070;24.752;2023-07-13T02:52:13;98994.59;;;25.07;65.42
10948;BME280;5526;42.070;24.752;2023-07-13T02:54:40;98994.22;;;25.08;65.55
10948;BME280;5526;42.070;24.752;2023-07-13T02:57:07;99001.09;;;25.06;65.32
10948;BME280;5526;42.070;24.752;2023-07-13T02:59:34;99006.16;;;25.07;65.51
10948;BME280;5526;42.070;24.752;2023-07-13T03:02:02;98993.47;;;25.08;65.80
10948;BME280;5526;42.070;24.752;2023-07-13T03:04:31;99006.47;;;25.06;65.82
10948;BME280;5526;42.070;24.752;2023-07-13T03:06:58;99007.28;;;25.06;66.25
10948;BME280;5526;42.070;24.752;2023-07-13T03:09:25;99000.06;;;25.10;66.89
10948;BME280;5526;42.070;24.752;2023-07-13T03:11:53;98999.72;;;25.12;67.02
10948;BME280;5526;42.070;24.752;2023-07-13T03:14:21;98993.53;;;25.11;67.23
10948;BME280;5526;42.070;24.752;2023-07-13T03:16:49;98998.31;;;25.18;67.05
10948;BME280;5526;42.070;24.752;2023-07-13T03:19:16;99002.75;;;25.26;67.01
10948;BME280;5526;42.070;24.752;2023-07-13T03:21:44;99009.13;;;25.33;67.13
10948;BME280;5526;42.070;24.752;2023-07-13T03:24:11;99005.13;;;25.43;67.45
10948;BME280;5526;42.070;24.752;2023-07-13T03:26:38;99009.69;;;25.58;66.43
10948;BME280;5526;42.070;24.752;2023-07-13T03:29:06;99002.47;;;25.62;66.64
10948;BME280;5526;42.070;24.752;2023-07-13T03:31:35;99013.19;;;25.77;66.87
10948;BME280;5526;42.070;24.752;2023-07-13T03:34:03;99001.94;;;25.91;66.46
10948;BME280;5526;42.070;24.752;2023-07-13T03:36:31;98999.63;;;26.08;66.21
10948;BME280;5526;42.070;24.752;2023-07-13T03:39:02;98987.16;;;26.19;66.25
10948;BME280;5526;42.070;24.752;2023-07-13T03:41:30;98996.28;;;26.34;65.69
10948;BME280;5526;42.070;24.752;2023-07-13T03:43:57;98993.50;;;26.49;64.88
10948;BME280;5526;42.070;24.752;2023-07-13T03:46:24;98991.88;;;26.64;64.33
10948;BME280;5526;42.070;24.752;2023-07-13T03:48:51;98991.72;;;26.76;64.53
10948;BME280;5526;42.070;24.752;2023-07-13T03:51:19;98985.63;;;26.82;64.52
10948;BME280;5526;42.070;24.752;2023-07-13T03:53:46;98995.53;;;26.97;63.66
10948;BME280;5526;42.070;24.752;2023-07-13T03:56:16;98996.56;;;27.12;62.79
10948;BME280;5526;42.070;24.752;2023-07-13T03:58:44;98999.09;;;27.24;62.79
10948;BME280;5526;42.070;24.752;2023-07-13T04:01:13;98998.88;;;27.36;61.94
10948;BME280;5526;42.070;24.752;2023-07-13T04:03:40;98995.16;;;27.44;61.30
10948;BME280;5526;42.070;24.752;2023-07-13T04:06:10;98998.44;;;27.56;60.89
10948;BME280;5526;42.070;24.752;2023-07-13T04:08:40;98999.28;;;27.64;61.10
10948;BME280;5526;42.070;24.752;2023-07-13T04:11:08;99005.53;;;27.68;61.02
10948;BME280;5526;42.070;24.752;2023-07-13T04:13:36;99018.06;;;27.79;60.56
10948;BME280;5526;42.070;24.752;2023-07-13T04:16:03;99009.50;;;28.00;60.22
10948;BME280;5526;42.070;24.752;2023-07-13T04:18:30;99007.78;;;28.18;59.83
10948;BME280;5526;42.070;24.752;2023-07-13T04:20:57;99007.19;;;28.35;59.73
10948;BME280;5526;42.070;24.752;2023-07-13T04:23:24;99009.69;;;28.47;57.33
10948;BME280;5526;42.070;24.752;2023-07-13T04:25:52;99012.41;;;28.47;56.33
10948;BME280;5526;42.070;24.752;2023-07-13T04:28:20;99018.63;;;28.51;56.89
10948;BME280;5526;42.070;24.752;2023-07-13T04:30:50;99023.00;;;28.63;58.39
10948;BME280;5526;42.070;24.752;2023-07-13T04:33:17;99026.00;;;28.54;59.59
10948;BME280;5526;42.070;24.752;2023-07-13T04:35:48;99021.38;;;28.55;59.04
10948;BME280;5526;42.070;24.752;2023-07-13T04:38:15;99029.88;;;28.57;57.51
10948;BME280;5526;42.070;24.752;2023-07-13T04:40:44;99027.03;;;28.43;57.37
10948;BME280;5526;42.070;24.752;2023-07-13T04:43:11;99024.06;;;28.51;57.28
10948;BME280;5526;42.070;24.752;2023-07-13T04:45:38;99024.41;;;28.50;57.18
10948;BME280;5526;42.070;24.752;2023-07-13T04:48:07;99027.50;;;28.48;56.86
10948;BME280;5526;42.070;24.752;2023-07-13T04:50:36;99037.50;;;28.44;56.77
10948;BME280;5526;42.070;24.752;2023-07-13T04:53:03;99034.09;;;28.21;57.49
10948;BME280;5526;42.070;24.752;2023-07-13T04:55:31;99035.75;;;28.29;57.54
10948;BME280;5526;42.070;24.752;2023-07-13T04:57:58;99032.38;;;28.39;57.04
10948;BME280;5526;42.070;24.752;2023-07-13T05:00:25;99028.78;;;28.28;56.49
10948;BME280;5526;42.070;24.752;2023-07-13T05:02:54;99035.56;;;28.45;56.10
10948;BME280;5526;42.070;24.752;2023-07-13T05:05:23;99040.44;;;28.32;56.28
10948;BME280;5526;42.070;24.752;2023-07-13T05:07:51;99036.31;;;28.42;56.24
10948;BME280;5526;42.070;24.752;2023-07-13T05:10:18;99031.47;;;28.58;55.28
10948;BME280;5526;42.070;24.752;2023-07-13T05:12:45;99031.50;;;28.61;55.40
10948;BME280;5526;42.070;24.752;2023-07-13T05:15:13;99041.28;;;29.09;54.27
10948;BME280;5526;42.070;24.752;2023-07-13T05:17:40;99041.53;;;29.37;53.74
10948;BME280;5526;42.070;24.752;2023-07-13T05:20:08;99039.78;;;29.62;52.32
10948;BME280;5526;42.070;24.752;2023-07-13T05:22:37;99027.56;;;29.93;51.78
10948;BME280;5526;42.070;24.752;2023-07-13T05:25:05;99036.72;;;29.67;52.05
10948;BME280;5526;42.070;24.752;2023-07-13T05:27:33;99040.22;;;29.71;52.10
10948;BME280;5526;42.070;24.752;2023-07-13T05:30:01;99043.34;;;29.73;51.88
10948;BME280;5526;42.070;24.752;2023-07-13T05:32:28;99042.00;;;29.50;53.21
10948;BME280;5526;42.070;24.752;2023-07-13T05:34:55;99043.22;;;29.56;52.96
10948;BME280;5526;42.070;24.752;2023-07-13T05:37:22;99040.72;;;29.33;53.89
10948;BME280;5526;42.070;24.752;2023-07-13T05:39:51;99043.97;;;29.56;52.92
10948;BME280;5526;42.070;24.752;2023-07-13T05:42:18;99029.41;;;29.75;52.58
10948;BME280;5526;42.070;24.752;2023-07-13T05:44:45;99037.41;;;30.15;52.02
10948;BME280;5526;42.070;24.752;2023-07-13T05:47:12;99043.13;;;30.06;51.66
10948;BME280;5526;42.070;24.752;2023-07-13T05:49:40;99044.72;;;30.11;51.77
10948;BME280;5526;42.070;24.752;2023-07-13T05:52:07;99051.94;;;29.82;52.96
10948;BME280;5526;42.070;24.752;2023-07-13T05:54:35;99039.75;;;30.20;51.91
10948;BME280;5526;42.070;24.752;2023-07-13T05:57:04;99040.19;;;30.32;51.80
10948;BME280;5526;42.070;24.752;2023-07-13T05:59:31;99044.41;;;30.23;51.87
10948;BME280;5526;42.070;24.752;2023-07-13T06:01:58;99039.44;;;30.39;52.14
10948;BME280;5526;42.070;24.752;2023-07-13T06:04:26;99042.28;;;30.70;50.46
10948;BME280;5526;42.070;24.752;2023-07-13T06:06:53;99046.16;;;30.76;50.38
10948;BME280;5526;42.070;24.752;2023-07-13T06:09:20;99045.03;;;31.02;49.85
10948;BME280;5526;42.070;24.752;2023-07-13T06:11:47;99049.69;;;31.08;49.25
10948;BME280;5526;42.070;24.752;2023-07-13T06:14:15;99047.81;;;31.40;48.72
10948;BME280;5526;42.070;24.752;2023-07-13T06:16:42;99052.41;;;31.75;47.84
10948;BME280;5526;42.070;24.752;2023-07-13T06:19:09;99054.00;;;31.51;48.39
10948;BME280;5526;42.070;24.752;2023-07-13T06:21:36;99050.88;;;31.63;48.22
10948;BME280;5526;42.070;24.752;2023-07-13T06:24:04;99051.66;;;31.64;48.16
10948;BME280;5526;42.070;24.752;2023-07-13T06:26:31;99042.69;;;31.71;48.48
10948;BME280;5526;42.070;24.752;2023-07-13T06:28:58;99042.28;;;31.90;47.82
10948;BME280;5526;42.070;24.752;2023-07-13T06:31:27;99043.84;;;31.73;48.11
10948;BME280;5526;42.070;24.752;2023-07-13T06:33:54;99047.72;;;31.97;47.53
10948;BME280;5526;42.070;24.752;2023-07-13T06:36:21;99049.56;;;32.35;45.85
10948;BME280;5526;42.070;24.752;2023-07-13T06:38:48;99043.97;;;32.59;45.55
10948;BME280;5526;42.070;24.752;2023-07-13T06:41:15;99041.25;;;32.59;45.05
10948;BME280;5526;42.070;24.752;2023-07-13T06:43:42;99038.66;;;32.35;46.20
10948;BME280;5526;42.070;24.752;2023-07-13T06:46:09;99036.47;;;32.77;44.43
10948;BME280;5526;42.070;24.752;2023-07-13T06:48:38;99030.06;;;33.05;43.38
10948;BME280;5526;42.070;24.752;2023-07-13T06:51:05;99032.25;;;32.69;44.78
10948;BME280;5526;42.070;24.752;2023-07-13T06:53:32;99035.63;;;32.91;44.09
10948;BME280;5526;42.070;24.752;2023-07-13T06:55:59;99031.72;;;32.95;43.64
10948;BME280;5526;42.070;24.752;2023-07-13T06:58:26;99030.09;;;33.01;44.53
10948;BME280;5526;42.070;24.752;2023-07-13T07:00:53;99029.50;;;33.27;44.27
10948;BME280;5526;42.070;24.752;2023-07-13T07:03:20;99030.00;;;33.15;44.03
10948;BME280;5526;42.070;24.752;2023-07-13T07:05:49;99038.94;;;33.16;42.95
10948;BME280;5526;42.070;24.752;2023-07-13T07:08:16;99030.63;;;32.86;44.49
10948;BME280;5526;42.070;24.752;2023-07-13T07:10:43;99036.56;;;33.21;43.36
10948;BME280;5526;42.070;24.752;2023-07-13T07:13:11;99028.31;;;33.72;42.51
10948;BME280;5526;42.070;24.752;2023-07-13T07:15:38;99034.97;;;34.08;41.76
10948;BME280;5526;42.070;24.752;2023-07-13T07:18:05;99026.88;;;33.98;42.08
10948;BME280;5526;42.070;24.752;2023-07-13T07:20:32;99027.91;;;33.33;43.01
10948;BME280;5526;42.070;24.752;2023-07-13T07:23:01;99022.03;;;33.75;43.48
10948;BME280;5526;42.070;24.752;2023-07-13T07:25:28;99026.88;;;34.01;42.77
10948;BME280;5526;42.070;24.752;2023-07-13T07:27:57;99026.00;;;34.08;42.35
10948;BME280;5526;42.070;24.752;2023-07-13T07:30:25;99029.94;;;34.07;42.42
10948;BME280;5526;42.070;24.752;2023-07-13T07:32:52;99024.88;;;34.02;41.85
10948;BME280;5526;42.070;24.752;2023-07-13T07:35:19;99023.72;;;34.36;41.17
10948;BME280;5526;42.070;24.752;2023-07-13T07:37:46;99026.72;;;34.72;40.57
10948;BME280;5526;42.070;24.752;2023-07-13T07:40:15;99025.78;;;34.55;40.07
10948;BME280;5526;42.070;24.752;2023-07-13T07:42:42;99025.78;;;34.25;41.19
10948;BME280;5526;42.070;24.752;2023-07-13T07:45:10;99029.59;;;34.92;41.58
10948;BME280;5526;42.070;24.752;2023-07-13T07:47:37;99020.19;;;35.42;39.44
10948;BME280;5526;42.070;24.752;2023-07-13T07:50:05;99024.81;;;35.45;38.62
10948;BME280;5526;42.070;24.752;2023-07-13T07:52:33;99028.97;;;35.53;39.02
10948;BME280;5526;42.070;24.752;2023-07-13T07:55:00;99029.13;;;36.08;37.66
10948;BME280;5526;42.070;24.752;2023-07-13T07:57:28;99032.06;;;36.17;36.97
10948;BME280;5526;42.070;24.752;2023-07-13T07:59:55;99038.06;;;35.93;37.59
10948;BME280;5526;42.070;24.752;2023-07-13T08:02:23;99025.88;;;36.13;36.52
10948;BME280;5526;42.070;24.752;2023-07-13T08:04:51;99021.78;;;36.21;36.12
10948;BME280;5526;42.070;24.752;2023-07-13T08:07:18;99018.66;;;36.03;36.25
10948;BME280;5526;42.070;24.752;2023-07-13T08:09:45;99018.03;;;36.15;35.86
10948;BME280;5526;42.070;24.752;2023-07-13T08:12:12;99011.41;;;35.93;36.63
10948;BME280;5526;42.070;24.752;2023-07-13T08:14:41;99017.19;;;36.18;35.26
10948;BME280;5526;42.070;24.752;2023-07-13T08:17:08;99014.66;;;36.27;35.21
10948;BME280;5526;42.070;24.752;2023-07-13T08:19:35;99014.22;;;36.09;36.28
10948;BME280;5526;42.070;24.752;2023-07-13T08:22:02;99003.47;;;36.38;35.39
10948;BME280;5526;42.070;24.752;2023-07-13T08:24:29;99014.78;;;36.91;34.55
10948;BME280;5526;42.070;24.752;2023-07-13T08:26:56;99002.44;;;37.15;34.38
10948;BME280;5526;42.070;24.752;2023-07-13T08:29:24;99006.91;;;37.25;33.83
10948;BME280;5526;42.070;24.752;2023-07-13T08:31:52;99005.19;;;37.31;33.51
10948;BME280;5526;42.070;24.752;2023-07-13T08:34:19;99005.53;;;37.78;33.33
10948;BME280;5526;42.070;24.752;2023-07-13T08:36:46;98997.72;;;38.05;32.40
10948;BME280;5526;42.070;24.752;2023-07-13T08:39:13;99003.84;;;37.68;33.00
10948;BME280;5526;42.070;24.752;2023-07-13T08:41:41;98993.13;;;38.14;32.41
10948;BME280;5526;42.070;24.752;2023-07-13T08:44:18;98989.28;;;38.24;31.99
10948;BME280;5526;42.070;24.752;2023-07-13T08:46:47;98992.97;;;38.05;32.17
10948;BME280;5526;42.070;24.752;2023-07-13T08:49:21;98991.59;;;37.56;31.86
10948;BME280;5526;42.070;24.752;2023-07-13T08:51:52;98980.03;;;38.06;31.71
10948;BME280;5526;42.070;24.752;2023-07-13T08:54:24;98982.44;;;38.16;31.48
10948;BME280;5526;42.070;24.752;2023-07-13T08:56:55;98980.53;;;38.55;30.86
10948;BME280;5526;42.070;24.752;2023-07-13T08:59:25;98980.50;;;38.42;30.74
10948;BME280;5526;42.070;24.752;2023-07-13T09:02:01;98973.91;;;38.40;30.46
10948;BME280;5526;42.070;24.752;2023-07-13T09:04:36;98970.31;;;38.55;31.08
10948;BME280;5526;42.070;24.752;2023-07-13T09:07:13;98972.91;;;38.84;30.29
10948;BME280;5526;42.070;24.752;2023-07-13T09:09:50;98976.75;;;38.99;30.63
10948;BME280;5526;42.070;24.752;2023-07-13T09:12:23;98969.34;;;39.21;29.89
10948;BME280;5526;42.070;24.752;2023-07-13T09:14:54;98965.28;;;39.68;29.64
10948;BME280;5526;42.070;24.752;2023-07-13T09:17:26;98962.00;;;39.95;28.99
10948;BME280;5526;42.070;24.752;2023-07-13T09:19:59;98958.56;;;40.12;28.82
10948;BME280;5526;42.070;24.752;2023-07-13T09:22:32;98959.13;;;40.29;27.52
10948;BME280;5526;42.070;24.752;2023-07-13T09:25:05;98955.63;;;40.07;28.39
10948;BME280;5526;42.070;24.752;2023-07-13T09:27:39;98956.69;;;40.31;27.34
10948;BME280;5526;42.070;24.752;2023-07-13T09:30:23;98950.84;;;40.07;28.28
10948;BME280;5526;42.070;24.752;2023-07-13T09:32:52;98947.81;;;39.62;28.02
10948;BME280;5526;42.070;24.752;2023-07-13T09:35:25;98951.13;;;39.36;28.11
10948;BME280;5526;42.070;24.752;2023-07-13T09:37:58;98939.63;;;39.16;28.33
10948;BME280;5526;42.070;24.752;2023-07-13T09:40:32;98925.34;;;39.30;28.71
10948;BME280;5526;42.070;24.752;2023-07-13T09:43:03;98936.00;;;39.62;28.92
10948;BME280;5526;42.070;24.752;2023-07-13T09:45:33;98928.47;;;39.75;28.06
10948;BME280;5526;42.070;24.752;2023-07-13T09:48:05;98920.00;;;39.91;27.31
10948;BME280;5526;42.070;24.752;2023-07-13T09:50:34;98911.91;;;39.75;27.55
10948;BME280;5526;42.070;24.752;2023-07-13T09:53:02;98915.53;;;39.63;27.37
10948;BME280;5526;42.070;24.752;2023-07-13T09:55:32;98903.56;;;39.66;27.05
10948;BME280;5526;42.070;24.752;2023-07-13T09:58:03;98910.94;;;39.90;27.59
10948;BME280;5526;42.070;24.752;2023-07-13T10:00:30;98901.53;;;40.00;27.31
10948;BME280;5526;42.070;24.752;2023-07-13T10:03:04;98893.50;;;40.24;26.82
10948;BME280;5526;42.070;24.752;2023-07-13T10:05:40;98882.19;;;40.22;27.45
10948;BME280;5526;42.070;24.752;2023-07-13T10:08:16;98881.25;;;40.25;27.01
10948;BME280;5526;42.070;24.752;2023-07-13T10:10:44;98880.84;;;40.35;26.62
10948;BME280;5526;42.070;24.752;2023-07-13T10:13:31;98871.75;;;40.26;26.31
10948;BME280;5526;42.070;24.752;2023-07-13T10:16:00;98868.69;;;40.24;26.54
10948;BME280;5526;42.070;24.752;2023-07-13T10:18:28;98868.69;;;40.33;26.55
10948;BME280;5526;42.070;24.752;2023-07-13T10:21:10;98858.41;;;40.73;25.55
10948;BME280;5526;42.070;24.752;2023-07-13T10:23:39;98861.31;;;40.87;26.10
10948;BME280;5526;42.070;24.752;2023-07-13T10:26:15;98860.84;;;40.80;25.62
10948;BME280;5526;42.070;24.752;2023-07-13T10:28:45;98868.03;;;40.68;25.42
10948;BME280;5526;42.070;24.752;2023-07-13T10:31:16;98870.56;;;39.96;25.44
10948;BME280;5526;42.070;24.752;2023-07-13T10:33:43;98867.22;;;40.41;25.17
10948;BME280;5526;42.070;24.752;2023-07-13T10:36:17;98865.28;;;40.77;25.27
10948;BME280;5526;42.070;24.752;2023-07-13T10:38:46;98857.50;;;41.03;25.02
10948;BME280;5526;42.070;24.752;2023-07-13T10:41:17;98856.56;;;40.61;25.30
10948;BME280;5526;42.070;24.752;2023-07-13T10:43:47;98857.81;;;41.05;24.08
10948;BME280;5526;42.070;24.752;2023-07-13T10:46:18;98853.19;;;40.75;24.20
10948;BME280;5526;42.070;24.752;2023-07-13T10:48:49;98855.66;;;40.73;23.79
10948;BME280;5526;42.070;24.752;2023-07-13T10:51:20;98856.19;;;40.59;24.05
10948;BME280;5526;42.070;24.752;2023-07-13T10:54:14;98847.50;;;40.87;23.00
10948;BME280;5526;42.070;24.752;2023-07-13T10:56:44;98840.19;;;41.02;22.96
10948;BME280;5526;42.070;24.752;2023-07-13T10:59:14;98834.63;;;41.29;22.94
10948;BME280;5526;42.070;24.752;2023-07-13T11:01:55;98836.88;;;41.58;22.90
10948;BME280;5526;42.070;24.752;2023-07-13T11:04:24;98839.66;;;41.40;22.65
10948;BME280;5526;42.070;24.752;2023-07-13T11:06:57;98833.50;;;41.63;22.89
10948;BME280;5526;42.070;24.752;2023-07-13T11:09:37;98832.56;;;41.66;22.60
10948;BME280;5526;42.070;24.752;2023-07-13T11:12:18;98827.75;;;41.76;22.04
10948;BME280;5526;42.070;24.752;2023-07-13T11:15:06;98817.50;;;41.67;22.60
10948;BME280;5526;42.070;24.752;2023-07-13T11:17:53;98800.63;;;41.65;22.00
10948;BME280;5526;42.070;24.752;2023-07-13T11:20:32;98815.41;;;42.04;22.66
10948;BME280;5526;42.070;24.752;2023-07-13T11:23:19;98814.47;;;41.56;22.26
10948;BME280;5526;42.070;24.752;2023-07-13T11:25:48;98818.66;;;41.42;22.58
10948;BME280;5526;42.070;24.752;2023-07-13T11:28:24;98816.09;;;41.81;22.33
10948;BME280;5526;42.070;24.752;2023-07-13T11:31:03;98811.13;;;41.94;22.94
10948;BME280;5526;42.070;24.752;2023-07-13T11:33:53;98812.72;;;41.68;21.08
10948;BME280;5526;42.070;24.752;2023-07-13T11:36:24;98808.22;;;41.88;21.29
10948;BME280;5526;42.070;24.752;2023-07-13T11:39:02;98803.28;;;41.41;21.61
10948;BME280;5526;42.070;24.752;2023-07-13T11:41:35;98790.94;;;41.70;22.06
10948;BME280;5526;42.070;24.752;2023-07-13T11:44:11;98796.41;;;41.88;21.58
10948;BME280;5526;42.070;24.752;2023-07-13T11:46:43;98796.84;;;41.95;20.82
10948;BME280;5526;42.070;24.752;2023-07-13T11:49:15;98791.84;;;42.08;21.11
10948;BME280;5526;42.070;24.752;2023-07-13T11:51:43;98795.19;;;42.12;21.24
10948;BME280;5526;42.070;24.752;2023-07-13T11:54:19;98797.44;;;42.23;20.73
10948;BME280;5526;42.070;24.752;2023-07-13T11:56:51;98799.34;;;42.40;21.06
10948;BME280;5526;42.070;24.752;2023-07-13T11:59:18;98798.19;;;42.94;21.37
10948;BME280;5526;42.070;24.752;2023-07-13T12:01:50;98794.13;;;43.18;20.99
10948;BME280;5526;42.070;24.752;2023-07-13T12:04:22;98791.34;;;43.18;20.46
10948;BME280;5526;42.070;24.752;2023-07-13T12:06:54;98780.03;;;42.55;20.08
10948;BME280;5526;42.070;24.752;2023-07-13T12:09:22;98782.31;;;42.09;20.47
10948;BME280;5526;42.070;24.752;2023-07-13T12:11:52;98773.22;;;42.41;20.64
10948;BME280;5526;42.070;24.752;2023-07-13T12:14:19;98768.78;;;42.96;19.75
10948;BME280;5526;42.070;24.752;2023-07-13T12:16:50;98765.75;;;43.52;19.33
10948;BME280;5526;42.070;24.752;2023-07-13T12:19:20;98756.31;;;43.79;19.41
10948;BME280;5526;42.070;24.752;2023-07-13T12:21:49;98756.25;;;44.08;19.17
10948;BME280;5526;42.070;24.752;2023-07-13T12:24:20;98753.44;;;44.22;18.03
10948;BME280;5526;42.070;24.752;2023-07-13T12:26:53;98744.13;;;44.25;18.27
10948;BME280;5526;42.070;24.752;2023-07-13T12:29:21;98742.31;;;44.42;18.56
10948;BME280;5526;42.070;24.752;2023-07-13T12:31:49;98732.13;;;44.54;18.96
10948;BME280;5526;42.070;24.752;2023-07-13T12:34:20;98740.09;;;43.57;18.40
10948;BME280;5526;42.070;24.752;2023-07-13T12:36:49;98740.44;;;43.45;19.04
10948;BME280;5526;42.070;24.752;2023-07-13T12:39:19;98737.72;;;43.65;19.23
10948;BME280;5526;42.070;24.752;2023-07-13T12:41:48;98731.78;;;43.72;19.29
10948;BME280;5526;42.070;24.752;2023-07-13T12:44:25;98729.81;;;43.43;18.59
10948;BME280;5526;42.070;24.752;2023-07-13T12:46:57;98724.94;;;43.38;18.46
10948;BME280;5526;42.070;24.752;2023-07-13T12:49:27;98722.59;;;43.66;18.24
10948;BME280;5526;42.070;24.752;2023-07-13T12:51:56;98717.09;;;43.86;18.25
10948;BME280;5526;42.070;24.752;2023-07-13T12:54:24;98711.63;;;43.91;18.61
10948;BME280;5526;42.070;24.752;2023-07-13T12:56:53;98706.91;;;43.63;17.86
10948;BME280;5526;42.070;24.752;2023-07-13T12:59:23;98711.50;;;43.66;18.31
10948;BME280;5526;42.070;24.752;2023-07-13T13:01:51;98702.19;;;43.83;18.24
10948;BME280;5526;42.070;24.752;2023-07-13T13:04:20;98711.97;;;43.99;18.28
10948;BME280;5526;42.070;24.752;2023-07-13T13:06:49;98710.19;;;44.16;18.89
10948;BME280;5526;42.070;24.752;2023-07-13T13:09:17;98711.25;;;44.18;18.94
10948;BME280;5526;42.070;24.752;2023-07-13T13:11:46;98695.81;;;44.17;18.07